sensor_id;sensor_type;location;lat;lon;timestamp;P1;durP1;ratioP1;P2;durP2;ratioP2
41677;SDS011;27364;49.026;8.712;2023-06-04T00:01:39;2.17;;;1.08;;
41677;SDS011;27364;49.026;8.712;2023-06-04T00:04:05;0.70;;;0.70;;
41677;SDS011;27364;49.026;8.712;2023-06-04T00:06:30;1.02;;;0.88;;
41677;SDS011;27364;49.026;8.712;2023-06-04T00:08:56;0.50;;;0.50;;
41677;SDS011;27364;49.026;8.712;2023-06-04T00:11:21;0.60;;;0.60;;
41677;SDS011;27364;49.026;8.712;2023-06-04T00:13:47;1.10;;;1.02;;
41677;SDS011;27364;49.026;8.712;2023-06-04T00:16:13;0.77;;;0.77;;
41677;SDS011;27364;49.026;8.712;2023-06-04T00:18:38;0.63;;;0.63;;
41677;SDS011;27364;49.026;8.712;2023-06-04T00:21:04;1.20;;;1.10;;
41677;SDS011;27364;49.026;8.712;2023-06-04T00:23:30;0.60;;;0.60;;
41677;SDS011;27364;49.026;8.712;2023-06-04T00:25:55;0.82;;;0.82;;
41677;SDS011;27364;49.026;8.712;2023-06-04T00:28:21;0.82;;;0.82;;
41677;SDS011;27364;49.026;8.712;2023-06-04T00:30:46;0.95;;;0.95;;
41677;SDS011;27364;49.026;8.712;2023-06-04T00:33:12;0.80;;;0.80;;
41677;SDS011;27364;49.026;8.712;2023-06-04T00:35:37;1.38;;;1.02;;
41677;SDS011;27364;49.026;8.712;2023-06-04T00:38:03;0.75;;;0.75;;
41677;SDS011;27364;49.026;8.712;2023-06-04T00:40:28;0.75;;;0.75;;
41677;SDS011;27364;49.026;8.712;2023-06-04T00:42:54;1.00;;;1.00;;
41677;SDS011;27364;49.026;8.712;2023-06-04T00:45:20;0.70;;;0.63;;
41677;SDS011;27364;49.026;8.712;2023-06-04T00:47:46;1.23;;;1.10;;
41677;SDS011;27364;49.026;8.712;2023-06-04T00:50:12;0.68;;;0.68;;
41677;SDS011;27364;49.026;8.712;2023-06-04T00:52:38;0.95;;;0.90;;
41677;SDS011;27364;49.026;8.712;2023-06-04T00:55:04;1.17;;;0.90;;
41677;SDS011;27364;49.026;8.712;2023-06-04T00:57:30;0.77;;;0.77;;
41677;SDS011;27364;49.026;8.712;2023-06-04T00:59:55;1.27;;;0.95;;
41677;SDS011;27364;49.026;8.712;2023-06-04T01:02:21;0.73;;;0.73;;
41677;SDS011;27364;49.026;8.712;2023-06-04T01:04:53;0.60;;;0.60;;
41677;SDS011;27364;49.026;8.712;2023-06-04T01:07:36;0.90;;;0.90;;
41677;SDS011;27364;49.026;8.712;2023-06-04T01:10:05;4.80;;;0.70;;
41677;SDS011;27364;49.026;8.712;2023-06-04T01:12:31;0.70;;;0.70;;
41677;SDS011;27364;49.026;8.712;2023-06-04T01:14:56;0.80;;;0.80;;
41677;SDS011;27364;49.026;8.712;2023-06-04T01:17:23;0.70;;;0.70;;
41677;SDS011;27364;49.026;8.712;2023-06-04T01:27:57;0.85;;;0.85;;
41677;SDS011;27364;49.026;8.712;2023-06-04T01:30:28;1.55;;;0.82;;
41677;SDS011;27364;49.026;8.712;2023-06-04T01:32:56;0.60;;;0.60;;
41677;SDS011;27364;49.026;8.712;2023-06-04T01:35:23;0.70;;;0.70;;
41677;SDS011;27364;49.026;8.712;2023-06-04T01:37:51;0.88;;;0.88;;
41677;SDS011;27364;49.026;8.712;2023-06-04T01:40:17;0.70;;;0.70;;
41677;SDS011;27364;49.026;8.712;2023-06-04T01:42:43;1.00;;;0.68;;
41677;SDS011;27364;49.026;8.712;2023-06-04T01:45:09;0.75;;;0.75;;
41677;SDS011;27364;49.026;8.712;2023-06-04T01:47:35;0.50;;;0.50;;
41677;SDS011;27364;49.026;8.712;2023-06-04T01:50:01;0.60;;;0.60;;
41677;SDS011;27364;49.026;8.712;2023-06-04T01:52:34;0.50;;;0.50;;
41677;SDS011;27364;49.026;8.712;2023-06-04T01:55:00;0.52;;;0.52;;
41677;SDS011;27364;49.026;8.712;2023-06-04T01:57:27;0.50;;;0.50;;
41677;SDS011;27364;49.026;8.712;2023-06-04T01:59:55;0.88;;;0.88;;
41677;SDS011;27364;49.026;8.712;2023-06-04T02:02:48;1.10;;;0.90;;
41677;SDS011;27364;49.026;8.712;2023-06-04T02:05:14;1.27;;;1.02;;
41677;SDS011;27364;49.026;8.712;2023-06-04T02:07:41;0.60;;;0.60;;
41677;SDS011;27364;49.026;8.712;2023-06-04T02:10:14;0.80;;;0.80;;
41677;SDS011;27364;49.026;8.712;2023-06-04T02:12:52;0.80;;;0.80;;
41677;SDS011;27364;49.026;8.712;2023-06-04T02:18:21;0.65;;;0.65;;
41677;SDS011;27364;49.026;8.712;2023-06-04T02:20:48;0.57;;;0.57;;
41677;SDS011;27364;49.026;8.712;2023-06-04T02:23:15;0.50;;;0.50;;
41677;SDS011;27364;49.026;8.712;2023-06-04T02:25:42;0.60;;;0.60;;
41677;SDS011;27364;49.026;8.712;2023-06-04T02:28:12;0.50;;;0.50;;
41677;SDS011;27364;49.026;8.712;2023-06-04T02:30:38;1.95;;;1.02;;
41677;SDS011;27364;49.026;8.712;2023-06-04T02:33:04;0.68;;;0.68;;
41677;SDS011;27364;49.026;8.712;2023-06-04T02:35:31;0.50;;;0.50;;
41677;SDS011;27364;49.026;8.712;2023-06-04T02:37:57;0.75;;;0.75;;
41677;SDS011;27364;49.026;8.712;2023-06-04T02:40:23;0.47;;;0.47;;
41677;SDS011;27364;49.026;8.712;2023-06-04T02:42:50;2.55;;;1.40;;
41677;SDS011;27364;49.026;8.712;2023-06-04T02:45:17;0.60;;;0.60;;
41677;SDS011;27364;49.026;8.712;2023-06-04T02:47:43;0.60;;;0.60;;
41677;SDS011;27364;49.026;8.712;2023-06-04T02:50:08;0.65;;;0.65;;
41677;SDS011;27364;49.026;8.712;2023-06-04T02:52:34;0.77;;;0.77;;
41677;SDS011;27364;49.026;8.712;2023-06-04T02:55:02;0.50;;;0.50;;
41677;SDS011;27364;49.026;8.712;2023-06-04T02:57:29;0.60;;;0.60;;
41677;SDS011;27364;49.026;8.712;2023-06-04T02:59:55;1.13;;;0.88;;
41677;SDS011;27364;49.026;8.712;2023-06-04T03:02:21;0.55;;;0.55;;
41677;SDS011;27364;49.026;8.712;2023-06-04T03:04:46;0.50;;;0.50;;
41677;SDS011;27364;49.026;8.712;2023-06-04T03:07:15;0.60;;;0.60;;
41677;SDS011;27364;49.026;8.712;2023-06-04T03:09:45;0.70;;;0.70;;
41677;SDS011;27364;49.026;8.712;2023-06-04T03:12:14;0.65;;;0.65;;
41677;SDS011;27364;49.026;8.712;2023-06-04T03:14:40;0.73;;;0.73;;
41677;SDS011;27364;49.026;8.712;2023-06-04T03:17:05;1.13;;;1.02;;
41677;SDS011;27364;49.026;8.712;2023-06-04T03:19:38;0.60;;;0.60;;
41677;SDS011;27364;49.026;8.712;2023-06-04T03:22:05;0.50;;;0.50;;
41677;SDS011;27364;49.026;8.712;2023-06-04T03:24:35;0.70;;;0.70;;
41677;SDS011;27364;49.026;8.712;2023-06-04T03:27:02;1.00;;;0.95;;
41677;SDS011;27364;49.026;8.712;2023-06-04T03:29:29;0.57;;;0.57;;
41677;SDS011;27364;49.026;8.712;2023-06-04T03:31:56;1.00;;;0.93;;
41677;SDS011;27364;49.026;8.712;2023-06-04T03:34:21;4.30;;;1.38;;
41677;SDS011;27364;49.026;8.712;2023-06-04T03:36:50;0.65;;;0.65;;
41677;SDS011;27364;49.026;8.712;2023-06-04T03:39:16;0.50;;;0.50;;
41677;SDS011;27364;49.026;8.712;2023-06-04T03:41:42;0.90;;;0.90;;
41677;SDS011;27364;49.026;8.712;2023-06-04T03:44:08;0.57;;;0.57;;
41677;SDS011;27364;49.026;8.712;2023-06-04T03:46:34;1.27;;;1.00;;
41677;SDS011;27364;49.026;8.712;2023-06-04T03:49:00;0.80;;;0.80;;
41677;SDS011;27364;49.026;8.712;2023-06-04T03:51:26;1.13;;;1.02;;
41677;SDS011;27364;49.026;8.712;2023-06-04T03:53:52;2.30;;;1.67;;
41677;SDS011;27364;49.026;8.712;2023-06-04T03:56:17;0.60;;;0.60;;
41677;SDS011;27364;49.026;8.712;2023-06-04T03:58:43;1.13;;;1.00;;
41677;SDS011;27364;49.026;8.712;2023-06-04T04:01:09;0.80;;;0.80;;
41677;SDS011;27364;49.026;8.712;2023-06-04T04:03:35;0.80;;;0.80;;
41677;SDS011;27364;49.026;8.712;2023-06-04T04:06:01;3.63;;;0.90;;
41677;SDS011;27364;49.026;8.712;2023-06-04T04:08:26;0.82;;;0.82;;
41677;SDS011;27364;49.026;8.712;2023-06-04T04:10:56;0.60;;;0.60;;
41677;SDS011;27364;49.026;8.712;2023-06-04T04:13:22;0.70;;;0.70;;
41677;SDS011;27364;49.026;8.712;2023-06-04T04:15:48;1.10;;;1.00;;
41677;SDS011;27364;49.026;8.712;2023-06-04T04:18:17;0.93;;;0.93;;
41677;SDS011;27364;49.026;8.712;2023-06-04T04:20:45;0.80;;;0.80;;
41677;SDS011;27364;49.026;8.712;2023-06-04T04:23:12;0.80;;;0.80;;
41677;SDS011;27364;49.026;8.712;2023-06-04T04:25:38;0.70;;;0.70;;
41677;SDS011;27364;49.026;8.712;2023-06-04T04:28:05;0.90;;;0.90;;
41677;SDS011;27364;49.026;8.712;2023-06-04T04:30:34;1.40;;;0.98;;
41677;SDS011;27364;49.026;8.712;2023-06-04T04:33:00;2.47;;;1.13;;
41677;SDS011;27364;49.026;8.712;2023-06-04T04:35:26;1.40;;;1.15;;
41677;SDS011;27364;49.026;8.712;2023-06-04T04:37:52;0.70;;;0.70;;
41677;SDS011;27364;49.026;8.712;2023-06-04T04:40:17;0.93;;;0.93;;
41677;SDS011;27364;49.026;8.712;2023-06-04T04:42:43;0.88;;;0.88;;
41677;SDS011;27364;49.026;8.712;2023-06-04T04:45:08;0.80;;;0.80;;
41677;SDS011;27364;49.026;8.712;2023-06-04T04:47:34;1.15;;;0.88;;
41677;SDS011;27364;49.026;8.712;2023-06-04T04:50:01;1.45;;;0.82;;
41677;SDS011;27364;49.026;8.712;2023-06-04T04:52:26;2.55;;;1.30;;
41677;SDS011;27364;49.026;8.712;2023-06-04T04:54:53;1.42;;;1.20;;
41677;SDS011;27364;49.026;8.712;2023-06-04T04:57:21;0.70;;;0.70;;
41677;SDS011;27364;49.026;8.712;2023-06-04T04:59:47;1.38;;;1.10;;
41677;SDS011;27364;49.026;8.712;2023-06-04T05:02:14;0.70;;;0.70;;
41677;SDS011;27364;49.026;8.712;2023-06-04T05:04:40;0.65;;;0.65;;
41677;SDS011;27364;49.026;8.712;2023-06-04T05:07:05;0.77;;;0.77;;
41677;SDS011;27364;49.026;8.712;2023-06-04T05:09:31;1.13;;;0.95;;
41677;SDS011;27364;49.026;8.712;2023-06-04T05:11:56;1.00;;;0.90;;
41677;SDS011;27364;49.026;8.712;2023-06-04T05:14:22;0.80;;;0.80;;
41677;SDS011;27364;49.026;8.712;2023-06-04T05:16:48;1.35;;;0.98;;
41677;SDS011;27364;49.026;8.712;2023-06-04T05:19:15;1.27;;;0.85;;
41677;SDS011;27364;49.026;8.712;2023-06-04T05:21:41;1.13;;;0.93;;
41677;SDS011;27364;49.026;8.712;2023-06-04T05:24:08;0.50;;;0.50;;
41677;SDS011;27364;49.026;8.712;2023-06-04T05:26:35;1.13;;;0.90;;
41677;SDS011;27364;49.026;8.712;2023-06-04T05:29:02;0.60;;;0.60;;
41677;SDS011;27364;49.026;8.712;2023-06-04T05:31:29;0.60;;;0.60;;
41677;SDS011;27364;49.026;8.712;2023-06-04T05:33:58;0.70;;;0.70;;
41677;SDS011;27364;49.026;8.712;2023-06-04T05:36:26;11.73;;;1.10;;
41677;SDS011;27364;49.026;8.712;2023-06-04T05:38:52;0.85;;;0.85;;
41677;SDS011;27364;49.026;8.712;2023-06-04T05:41:21;0.55;;;0.55;;
41677;SDS011;27364;49.026;8.712;2023-06-04T05:43:48;0.73;;;0.70;;
41677;SDS011;27364;49.026;8.712;2023-06-04T05:46:14;0.60;;;0.60;;
41677;SDS011;27364;49.026;8.712;2023-06-04T05:48:40;0.63;;;0.63;;
41677;SDS011;27364;49.026;8.712;2023-06-04T05:51:05;0.75;;;0.75;;
41677;SDS011;27364;49.026;8.712;2023-06-04T05:53:31;1.15;;;0.55;;
41677;SDS011;27364;49.026;8.712;2023-06-04T05:55:57;0.60;;;0.60;;
41677;SDS011;27364;49.026;8.712;2023-06-04T05:58:23;0.68;;;0.68;;
41677;SDS011;27364;49.026;8.712;2023-06-04T06:00:49;1.02;;;1.02;;
41677;SDS011;27364;49.026;8.712;2023-06-04T06:03:15;1.80;;;0.68;;
41677;SDS011;27364;49.026;8.712;2023-06-04T06:05:42;0.50;;;0.50;;
41677;SDS011;27364;49.026;8.712;2023-06-04T06:08:08;5.30;;;1.10;;
41677;SDS011;27364;49.026;8.712;2023-06-04T06:10:34;0.73;;;0.73;;
41677;SDS011;27364;49.026;8.712;2023-06-04T06:13:00;0.50;;;0.50;;
41677;SDS011;27364;49.026;8.712;2023-06-04T06:15:26;0.43;;;0.43;;
41677;SDS011;27364;49.026;8.712;2023-06-04T06:17:52;1.13;;;0.70;;
41677;SDS011;27364;49.026;8.712;2023-06-04T06:20:18;2.15;;;0.88;;
41677;SDS011;27364;49.026;8.712;2023-06-04T06:22:44;0.60;;;0.60;;
41677;SDS011;27364;49.026;8.712;2023-06-04T06:25:09;0.77;;;0.77;;
41677;SDS011;27364;49.026;8.712;2023-06-04T06:27:38;0.57;;;0.57;;
41677;SDS011;27364;49.026;8.712;2023-06-04T06:30:05;1.15;;;0.90;;
41677;SDS011;27364;49.026;8.712;2023-06-04T06:32:31;1.10;;;0.70;;
41677;SDS011;27364;49.026;8.712;2023-06-04T06:34:57;0.70;;;0.70;;
41677;SDS011;27364;49.026;8.712;2023-06-04T06:37:23;0.57;;;0.57;;
41677;SDS011;27364;49.026;8.712;2023-06-04T06:39:48;0.77;;;0.77;;
41677;SDS011;27364;49.026;8.712;2023-06-04T06:42:14;0.50;;;0.50;;
41677;SDS011;27364;49.026;8.712;2023-06-04T06:44:42;0.60;;;0.60;;
41677;SDS011;27364;49.026;8.712;2023-06-04T06:47:09;2.17;;;1.13;;
41677;SDS011;27364;49.026;8.712;2023-06-04T06:49:38;0.47;;;0.47;;
41677;SDS011;27364;49.026;8.712;2023-06-04T06:52:06;0.63;;;0.60;;
41677;SDS011;27364;49.026;8.712;2023-06-04T06:54:32;0.57;;;0.57;;
41677;SDS011;27364;49.026;8.712;2023-06-04T06:56:57;0.82;;;0.82;;
41677;SDS011;27364;49.026;8.712;2023-06-04T06:59:23;0.63;;;0.63;;
41677;SDS011;27364;49.026;8.712;2023-06-04T07:01:50;0.60;;;0.60;;
41677;SDS011;27364;49.026;8.712;2023-06-04T07:04:15;0.50;;;0.50;;
41677;SDS011;27364;49.026;8.712;2023-06-04T07:06:41;0.50;;;0.50;;
41677;SDS011;27364;49.026;8.712;2023-06-04T07:09:07;0.65;;;0.65;;
41677;SDS011;27364;49.026;8.712;2023-06-04T07:11:33;0.40;;;0.40;;
41677;SDS011;27364;49.026;8.712;2023-06-04T07:13:59;0.75;;;0.75;;
41677;SDS011;27364;49.026;8.712;2023-06-04T07:16:27;0.65;;;0.65;;
41677;SDS011;27364;49.026;8.712;2023-06-04T07:18:53;0.70;;;0.70;;
41677;SDS011;27364;49.026;8.712;2023-06-04T07:21:19;0.73;;;0.73;;
41677;SDS011;27364;49.026;8.712;2023-06-04T07:23:46;2.25;;;1.23;;
41677;SDS011;27364;49.026;8.712;2023-06-04T07:26:14;0.55;;;0.55;;
41677;SDS011;27364;49.026;8.712;2023-06-04T07:28:41;0.80;;;0.80;;
41677;SDS011;27364;49.026;8.712;2023-06-04T07:31:06;0.50;;;0.50;;
41677;SDS011;27364;49.026;8.712;2023-06-04T07:33:32;0.73;;;0.73;;
41677;SDS011;27364;49.026;8.712;2023-06-04T07:35:58;0.70;;;0.70;;
41677;SDS011;27364;49.026;8.712;2023-06-04T07:38:24;0.65;;;0.65;;
41677;SDS011;27364;49.026;8.712;2023-06-04T07:40:50;0.47;;;0.47;;
41677;SDS011;27364;49.026;8.712;2023-06-04T07:43:16;1.48;;;1.05;;
41677;SDS011;27364;49.026;8.712;2023-06-04T07:45:41;0.52;;;0.52;;
41677;SDS011;27364;49.026;8.712;2023-06-04T07:48:08;1.75;;;1.00;;
41677;SDS011;27364;49.026;8.712;2023-06-04T07:50:35;0.60;;;0.60;;
41677;SDS011;27364;49.026;8.712;2023-06-04T07:53:02;0.43;;;0.43;;
41677;SDS011;27364;49.026;8.712;2023-06-04T07:55:28;0.70;;;0.70;;
41677;SDS011;27364;49.026;8.712;2023-06-04T07:57:54;0.50;;;0.50;;
41677;SDS011;27364;49.026;8.712;2023-06-04T08:00:20;0.40;;;0.40;;
41677;SDS011;27364;49.026;8.712;2023-06-04T08:02:45;0.63;;;0.63;;
41677;SDS011;27364;49.026;8.712;2023-06-04T08:05:11;0.40;;;0.40;;
41677;SDS011;27364;49.026;8.712;2023-06-04T08:07:39;0.60;;;0.60;;
41677;SDS011;27364;49.026;8.712;2023-06-04T08:10:05;0.57;;;0.57;;
41677;SDS011;27364;49.026;8.712;2023-06-04T08:12:31;0.68;;;0.68;;
41677;SDS011;27364;49.026;8.712;2023-06-04T08:14:57;0.50;;;0.50;;
41677;SDS011;27364;49.026;8.712;2023-06-04T08:17:23;0.40;;;0.40;;
41677;SDS011;27364;49.026;8.712;2023-06-04T08:19:49;0.40;;;0.40;;
41677;SDS011;27364;49.026;8.712;2023-06-04T08:22:14;0.57;;;0.57;;
41677;SDS011;27364;49.026;8.712;2023-06-04T08:24:40;0.52;;;0.52;;
41677;SDS011;27364;49.026;8.712;2023-06-04T08:27:06;0.60;;;0.60;;
41677;SDS011;27364;49.026;8.712;2023-06-04T08:29:33;0.40;;;0.40;;
41677;SDS011;27364;49.026;8.712;2023-06-04T08:32:03;0.63;;;0.63;;
41677;SDS011;27364;49.026;8.712;2023-06-04T08:34:29;0.40;;;0.40;;
41677;SDS011;27364;49.026;8.712;2023-06-04T08:36:55;1.70;;;0.70;;
41677;SDS011;27364;49.026;8.712;2023-06-04T08:39:21;0.45;;;0.45;;
41677;SDS011;27364;49.026;8.712;2023-06-04T08:41:51;0.50;;;0.50;;
41677;SDS011;27364;49.026;8.712;2023-06-04T08:44:19;0.52;;;0.52;;
41677;SDS011;27364;49.026;8.712;2023-06-04T08:46:45;0.38;;;0.38;;
41677;SDS011;27364;49.026;8.712;2023-06-04T08:49:15;0.60;;;0.60;;
41677;SDS011;27364;49.026;8.712;2023-06-04T08:51:43;0.50;;;0.50;;
41677;SDS011;27364;49.026;8.712;2023-06-04T08:54:09;1.30;;;1.02;;
41677;SDS011;27364;49.026;8.712;2023-06-04T08:56:36;0.68;;;0.68;;
41677;SDS011;27364;49.026;8.712;2023-06-04T08:59:03;0.45;;;0.45;;
41677;SDS011;27364;49.026;8.712;2023-06-04T09:01:31;0.70;;;0.60;;
41677;SDS011;27364;49.026;8.712;2023-06-04T09:03:59;1.33;;;1.13;;
41677;SDS011;27364;49.026;8.712;2023-06-04T09:06:26;0.63;;;0.63;;
41677;SDS011;27364;49.026;8.712;2023-06-04T09:08:52;1.05;;;0.95;;
41677;SDS011;27364;49.026;8.712;2023-06-04T09:11:22;1.50;;;0.85;;
41677;SDS011;27364;49.026;8.712;2023-06-04T09:13:51;0.50;;;0.50;;
41677;SDS011;27364;49.026;8.712;2023-06-04T09:16:18;0.43;;;0.43;;
41677;SDS011;27364;49.026;8.712;2023-06-04T09:18:44;0.32;;;0.32;;
41677;SDS011;27364;49.026;8.712;2023-06-04T09:21:10;1.02;;;0.85;;
41677;SDS011;27364;49.026;8.712;2023-06-04T09:23:45;0.20;;;0.20;;
41677;SDS011;27364;49.026;8.712;2023-06-04T09:26:12;0.60;;;0.60;;
41677;SDS011;27364;49.026;8.712;2023-06-04T09:28:41;0.55;;;0.55;;
41677;SDS011;27364;49.026;8.712;2023-06-04T09:31:17;0.60;;;0.60;;
41677;SDS011;27364;49.026;8.712;2023-06-04T09:33:47;0.32;;;0.32;;
41677;SDS011;27364;49.026;8.712;2023-06-04T09:36:15;1.08;;;0.68;;
41677;SDS011;27364;49.026;8.712;2023-06-04T09:38:41;0.50;;;0.50;;
41677;SDS011;27364;49.026;8.712;2023-06-04T09:41:15;0.47;;;0.47;;
41677;SDS011;27364;49.026;8.712;2023-06-04T09:43:44;0.43;;;0.43;;
41677;SDS011;27364;49.026;8.712;2023-06-04T09:46:13;0.30;;;0.30;;
41677;SDS011;27364;49.026;8.712;2023-06-04T09:48:41;0.65;;;0.63;;
41677;SDS011;27364;49.026;8.712;2023-06-04T09:51:14;0.50;;;0.50;;
41677;SDS011;27364;49.026;8.712;2023-06-04T09:53:40;0.95;;;0.63;;
41677;SDS011;27364;49.026;8.712;2023-06-04T09:56:06;5.15;;;0.52;;
41677;SDS011;27364;49.026;8.712;2023-06-04T09:58:33;1.17;;;0.85;;
41677;SDS011;27364;49.026;8.712;2023-06-04T10:01:03;1.30;;;1.15;;
41677;SDS011;27364;49.026;8.712;2023-06-04T10:03:30;0.65;;;0.65;;
41677;SDS011;27364;49.026;8.712;2023-06-04T10:05:58;0.50;;;0.50;;
41677;SDS011;27364;49.026;8.712;2023-06-04T10:08:29;3.25;;;0.77;;
41677;SDS011;27364;49.026;8.712;2023-06-04T10:10:56;1.00;;;0.73;;
41677;SDS011;27364;49.026;8.712;2023-06-04T10:13:26;0.38;;;0.38;;
41677;SDS011;27364;49.026;8.712;2023-06-04T10:15:54;0.30;;;0.30;;
41677;SDS011;27364;49.026;8.712;2023-06-04T10:18:23;0.35;;;0.35;;
41677;SDS011;27364;49.026;8.712;2023-06-04T10:20:49;0.20;;;0.20;;
41677;SDS011;27364;49.026;8.712;2023-06-04T10:23:22;0.90;;;0.82;;
41677;SDS011;27364;49.026;8.712;2023-06-04T10:26:45;0.40;;;0.40;;
41677;SDS011;27364;49.026;8.712;2023-06-04T10:29:10;0.60;;;0.60;;
41677;SDS011;27364;49.026;8.712;2023-06-04T10:31:37;0.38;;;0.38;;
41677;SDS011;27364;49.026;8.712;2023-06-04T10:34:03;0.50;;;0.50;;
41677;SDS011;27364;49.026;8.712;2023-06-04T10:36:29;0.63;;;0.63;;
41677;SDS011;27364;49.026;8.712;2023-06-04T10:38:55;0.38;;;0.38;;
41677;SDS011;27364;49.026;8.712;2023-06-04T10:41:21;0.38;;;0.38;;
41677;SDS011;27364;49.026;8.712;2023-06-04T10:43:48;1.38;;;0.68;;
41677;SDS011;27364;49.026;8.712;2023-06-04T10:46:15;0.47;;;0.47;;
41677;SDS011;27364;49.026;8.712;2023-06-04T10:51:15;2.38;;;0.65;;
41677;SDS011;27364;49.026;8.712;2023-06-04T10:53:42;0.50;;;0.50;;
41677;SDS011;27364;49.026;8.712;2023-06-04T10:56:08;0.40;;;0.40;;
41677;SDS011;27364;49.026;8.712;2023-06-04T10:58:34;0.95;;;0.65;;
41677;SDS011;27364;49.026;8.712;2023-06-04T11:01:00;0.70;;;0.70;;
41677;SDS011;27364;49.026;8.712;2023-06-04T11:03:35;0.40;;;0.40;;
41677;SDS011;27364;49.026;8.712;2023-06-04T11:06:02;0.50;;;0.50;;
41677;SDS011;27364;49.026;8.712;2023-06-04T11:08:28;0.30;;;0.30;;
41677;SDS011;27364;49.026;8.712;2023-06-04T11:10:55;0.60;;;0.60;;
41677;SDS011;27364;49.026;8.712;2023-06-04T11:13:24;0.60;;;0.60;;
41677;SDS011;27364;49.026;8.712;2023-06-04T11:15:52;0.50;;;0.50;;
41677;SDS011;27364;49.026;8.712;2023-06-04T11:18:20;0.45;;;0.45;;
41677;SDS011;27364;49.026;8.712;2023-06-04T11:20:47;0.43;;;0.43;;
41677;SDS011;27364;49.026;8.712;2023-06-04T11:25:40;0.40;;;0.40;;
41677;SDS011;27364;49.026;8.712;2023-06-04T11:28:08;0.38;;;0.38;;
41677;SDS011;27364;49.026;8.712;2023-06-04T11:30:40;1.50;;;1.08;;
41677;SDS011;27364;49.026;8.712;2023-06-04T11:33:06;0.80;;;0.73;;
41677;SDS011;27364;49.026;8.712;2023-06-04T11:35:39;0.38;;;0.38;;
41677;SDS011;27364;49.026;8.712;2023-06-04T11:38:06;0.73;;;0.52;;
41677;SDS011;27364;49.026;8.712;2023-06-04T11:40:32;0.93;;;0.88;;
41677;SDS011;27364;49.026;8.712;2023-06-04T11:42:57;0.35;;;0.35;;
41677;SDS011;27364;49.026;8.712;2023-06-04T11:45:23;2.00;;;0.57;;
41677;SDS011;27364;49.026;8.712;2023-06-04T11:47:54;0.60;;;0.60;;
41677;SDS011;27364;49.026;8.712;2023-06-04T11:50:26;0.52;;;0.52;;
41677;SDS011;27364;49.026;8.712;2023-06-04T11:52:53;0.40;;;0.40;;
41677;SDS011;27364;49.026;8.712;2023-06-04T11:55:19;0.63;;;0.63;;
41677;SDS011;27364;49.026;8.712;2023-06-04T11:57:48;0.65;;;0.57;;
41677;SDS011;27364;49.026;8.712;2023-06-04T12:00:15;0.63;;;0.63;;
41677;SDS011;27364;49.026;8.712;2023-06-04T12:05:17;0.43;;;0.43;;
41677;SDS011;27364;49.026;8.712;2023-06-04T12:10:10;0.40;;;0.40;;
41677;SDS011;27364;49.026;8.712;2023-06-04T12:12:39;0.40;;;0.40;;
41677;SDS011;27364;49.026;8.712;2023-06-04T12:15:08;0.47;;;0.38;;
41677;SDS011;27364;49.026;8.712;2023-06-04T12:17:35;0.43;;;0.43;;
41677;SDS011;27364;49.026;8.712;2023-06-04T12:22:28;1.87;;;0.77;;
41677;SDS011;27364;49.026;8.712;2023-06-04T12:24:54;0.30;;;0.30;;
41677;SDS011;27364;49.026;8.712;2023-06-04T12:27:22;0.45;;;0.45;;
41677;SDS011;27364;49.026;8.712;2023-06-04T12:30:03;1.90;;;0.55;;
41677;SDS011;27364;49.026;8.712;2023-06-04T12:32:36;0.65;;;0.57;;
41677;SDS011;27364;49.026;8.712;2023-06-04T12:35:02;0.75;;;0.60;;
41677;SDS011;27364;49.026;8.712;2023-06-04T12:37:28;0.98;;;0.60;;
41677;SDS011;27364;49.026;8.712;2023-06-04T12:39:53;0.43;;;0.43;;
41677;SDS011;27364;49.026;8.712;2023-06-04T12:42:20;3.78;;;1.17;;
41677;SDS011;27364;49.026;8.712;2023-06-04T12:44:46;1.48;;;0.88;;
41677;SDS011;27364;49.026;8.712;2023-06-04T12:47:11;0.50;;;0.50;;
41677;SDS011;27364;49.026;8.712;2023-06-04T12:49:37;2.13;;;0.95;;
41677;SDS011;27364;49.026;8.712;2023-06-04T12:52:03;0.30;;;0.30;;
41677;SDS011;27364;49.026;8.712;2023-06-04T12:54:29;0.20;;;0.20;;
41677;SDS011;27364;49.026;8.712;2023-06-04T12:56:55;0.43;;;0.43;;
41677;SDS011;27364;49.026;8.712;2023-06-04T12:59:22;1.13;;;0.47;;
41677;SDS011;27364;49.026;8.712;2023-06-04T13:01:50;0.40;;;0.40;;
41677;SDS011;27364;49.026;8.712;2023-06-04T13:04:16;0.60;;;0.55;;
41677;SDS011;27364;49.026;8.712;2023-06-04T13:06:41;1.17;;;0.80;;
41677;SDS011;27364;49.026;8.712;2023-06-04T13:09:07;0.32;;;0.32;;
41677;SDS011;27364;49.026;8.712;2023-06-04T13:11:40;0.75;;;0.50;;
41677;SDS011;27364;49.026;8.712;2023-06-04T13:14:07;0.20;;;0.20;;
41677;SDS011;27364;49.026;8.712;2023-06-04T13:16:34;0.40;;;0.40;;
41677;SDS011;27364;49.026;8.712;2023-06-04T13:19:00;0.63;;;0.63;;
41677;SDS011;27364;49.026;8.712;2023-06-04T13:21:26;0.60;;;0.60;;
41677;SDS011;27364;49.026;8.712;2023-06-04T13:23:52;0.30;;;0.30;;
41677;SDS011;27364;49.026;8.712;2023-06-04T13:26:17;0.60;;;0.60;;
41677;SDS011;27364;49.026;8.712;2023-06-04T13:28:43;0.35;;;0.35;;
41677;SDS011;27364;49.026;8.712;2023-06-04T13:31:09;1.13;;;0.75;;
41677;SDS011;27364;49.026;8.712;2023-06-04T13:33:35;0.30;;;0.30;;
41677;SDS011;27364;49.026;8.712;2023-06-04T13:36:04;1.35;;;0.43;;
41677;SDS011;27364;49.026;8.712;2023-06-04T13:38:31;0.40;;;0.40;;
41677;SDS011;27364;49.026;8.712;2023-06-04T13:40:57;0.43;;;0.37;;
41677;SDS011;27364;49.026;8.712;2023-06-04T13:43:22;0.43;;;0.43;;
41677;SDS011;27364;49.026;8.712;2023-06-04T13:45:48;0.30;;;0.30;;
41677;SDS011;27364;49.026;8.712;2023-06-04T13:48:14;0.43;;;0.43;;
41677;SDS011;27364;49.026;8.712;2023-06-04T13:50:40;3.42;;;1.00;;
41677;SDS011;27364;49.026;8.712;2023-06-04T13:53:07;1.15;;;0.90;;
41677;SDS011;27364;49.026;8.712;2023-06-04T13:55:33;0.80;;;0.77;;
41677;SDS011;27364;49.026;8.712;2023-06-04T13:57:59;1.00;;;0.80;;
41677;SDS011;27364;49.026;8.712;2023-06-04T14:00:25;0.57;;;0.57;;
41677;SDS011;27364;49.026;8.712;2023-06-04T14:02:51;4.15;;;2.75;;
41677;SDS011;27364;49.026;8.712;2023-06-04T14:05:17;7.65;;;4.57;;
41677;SDS011;27364;49.026;8.712;2023-06-04T14:07:43;4.00;;;2.88;;
41677;SDS011;27364;49.026;8.712;2023-06-04T14:10:10;2.25;;;1.80;;
41677;SDS011;27364;49.026;8.712;2023-06-04T14:12:39;1.10;;;0.75;;
41677;SDS011;27364;49.026;8.712;2023-06-04T14:15:06;1.88;;;1.13;;
41677;SDS011;27364;49.026;8.712;2023-06-04T14:17:37;0.55;;;0.55;;
41677;SDS011;27364;49.026;8.712;2023-06-04T14:20:03;1.17;;;0.87;;
41677;SDS011;27364;49.026;8.712;2023-06-04T14:22:36;1.48;;;0.77;;
41677;SDS011;27364;49.026;8.712;2023-06-04T14:25:03;1.08;;;0.90;;
41677;SDS011;27364;49.026;8.712;2023-06-04T14:27:29;0.47;;;0.47;;
41677;SDS011;27364;49.026;8.712;2023-06-04T14:29:55;0.65;;;0.60;;
41677;SDS011;27364;49.026;8.712;2023-06-04T14:32:21;0.40;;;0.40;;
41677;SDS011;27364;49.026;8.712;2023-06-04T14:34:47;1.02;;;0.60;;
41677;SDS011;27364;49.026;8.712;2023-06-04T14:37:13;0.32;;;0.32;;
41677;SDS011;27364;49.026;8.712;2023-06-04T14:39:38;2.00;;;1.35;;
41677;SDS011;27364;49.026;8.712;2023-06-04T14:42:04;0.30;;;0.30;;
41677;SDS011;27364;49.026;8.712;2023-06-04T14:44:30;0.50;;;0.50;;
41677;SDS011;27364;49.026;8.712;2023-06-04T14:46:56;1.02;;;0.88;;
41677;SDS011;27364;49.026;8.712;2023-06-04T14:49:22;3.92;;;2.75;;
41677;SDS011;27364;49.026;8.712;2023-06-04T14:51:47;8.05;;;4.07;;
41677;SDS011;27364;49.026;8.712;2023-06-04T14:54:13;3.28;;;2.63;;
41677;SDS011;27364;49.026;8.712;2023-06-04T14:56:38;5.22;;;1.60;;
41677;SDS011;27364;49.026;8.712;2023-06-04T14:59:04;2.10;;;1.23;;
41677;SDS011;27364;49.026;8.712;2023-06-04T15:01:36;1.95;;;1.05;;
41677;SDS011;27364;49.026;8.712;2023-06-04T15:04:03;0.85;;;0.75;;
41677;SDS011;27364;49.026;8.712;2023-06-04T15:06:29;0.30;;;0.30;;
41677;SDS011;27364;49.026;8.712;2023-06-04T15:08:55;2.92;;;1.25;;
41677;SDS011;27364;49.026;8.712;2023-06-04T15:11:20;5.22;;;3.38;;